createdAt,value
2023-01-10T00:01:20.878Z,84.33
2023-01-10T00:03:47.580Z,84.21
2023-01-10T00:06:13.981Z,84.17
2023-01-10T00:08:40.460Z,83.87
2023-01-10T00:11:26.820Z,83.58
2023-01-10T00:13:54.568Z,83.34
2023-01-10T00:16:21.863Z,82.93
2023-01-10T00:18:48.916Z,82.93
2023-01-10T00:21:15.529Z,83.02
2023-01-10T00:23:45.858Z,82.84
2023-01-10T00:26:12.396Z,82.62
2023-01-10T00:28:39.351Z,82.61
2023-01-10T00:31:06.919Z,82.59
2023-01-10T00:33:34.768Z,82.22
2023-01-10T00:36:01.524Z,81.73
2023-01-10T00:38:28.503Z,81.81
2023-01-10T00:40:54.950Z,81.85
2023-01-10T00:43:39.978Z,81.55
2023-01-10T00:46:06.383Z,81.70
2023-01-10T00:48:32.812Z,81.67
2023-01-10T00:50:59.268Z,81.88
2023-01-10T00:53:25.780Z,81.57
2023-01-10T00:55:53.554Z,81.30
2023-01-10T01:00:35.930Z,81.38
2023-01-10T01:03:03.376Z,81.35
2023-01-10T01:05:29.806Z,81.03
2023-01-10T01:07:56.293Z,81.06
2023-01-10T01:10:28.837Z,81.13
2023-01-10T01:12:57.806Z,81.33
2023-01-10T01:15:25.419Z,81.34
2023-01-10T01:17:51.821Z,81.09
2023-01-10T01:20:18.771Z,81.21
2023-01-10T01:22:45.436Z,81.45
2023-01-10T01:25:11.909Z,81.49
2023-01-10T01:27:38.346Z,81.50
2023-01-10T01:30:11.197Z,81.47
2023-01-10T01:32:37.804Z,81.17
2023-01-10T01:35:05.975Z,81.24
2023-01-10T01:37:32.522Z,81.27
2023-01-10T01:39:59.151Z,81.28
2023-01-10T01:42:33.281Z,81.44
2023-01-10T01:45:09.069Z,81.56
2023-01-10T01:47:58.694Z,81.56
2023-01-10T01:50:32.494Z,81.32
2023-01-10T01:53:02.031Z,81.28
2023-01-10T01:55:31.426Z,81.23
2023-01-10T01:58:04.322Z,81.13
2023-01-10T02:00:30.798Z,80.81
2023-01-10T02:03:02.944Z,80.90
2023-01-10T02:05:32.760Z,80.93
2023-01-10T02:08:02.177Z,81.25
2023-01-10T02:10:39.282Z,81.05
2023-01-10T02:13:08.249Z,80.86
2023-01-10T02:15:34.716Z,80.81
2023-01-10T02:18:03.495Z,80.94
2023-01-10T02:20:41.647Z,80.94
2023-01-10T02:23:33.922Z,80.96
2023-01-10T02:26:18.665Z,80.86
2023-01-10T02:29:00.353Z,81.09
2023-01-10T02:31:36.607Z,81.27
2023-01-10T02:34:33.573Z,81.33
2023-01-10T02:37:43.447Z,81.35
2023-01-10T02:40:22.754Z,81.16
2023-01-10T02:43:10.276Z,81.30
2023-01-10T02:45:44.101Z,81.09
2023-01-10T02:48:10.967Z,80.87
2023-01-10T02:50:50.872Z,80.79
2023-01-10T02:53:47.168Z,80.89
2023-01-10T02:56:25.728Z,80.89
2023-01-10T02:59:12.754Z,80.93
2023-01-10T03:02:07.987Z,80.90
2023-01-10T03:04:45.574Z,80.69
2023-01-10T03:07:43.046Z,80.62
2023-01-10T03:10:19.226Z,80.63
2023-01-10T03:13:01.614Z,80.65
2023-01-10T03:15:31.561Z,80.45
2023-01-10T03:18:01.818Z,80.90
2023-01-10T03:20:32.069Z,80.93
2023-01-10T03:23:02.934Z,80.38
2023-01-10T03:25:34.231Z,80.42
2023-01-10T03:28:08.275Z,80.76
2023-01-10T03:30:47.090Z,80.46
2023-01-10T03:33:18.206Z,80.17
2023-01-10T03:36:04.877Z,80.05
2023-01-10T03:38:55.226Z,79.92
2023-01-10T03:41:39.231Z,79.62
2023-01-10T03:44:36.660Z,79.60
2023-01-10T03:47:21.718Z,79.55
2023-01-10T03:49:53.864Z,79.60
2023-01-10T03:52:21.202Z,79.61
2023-01-10T03:54:48.292Z,79.72
2023-01-10T03:57:17.492Z,79.92
2023-01-10T03:59:44.313Z,80.14
2023-01-10T04:02:11.424Z,80.11
2023-01-10T04:04:37.905Z,80.02
2023-01-10T04:07:04.600Z,80.46
2023-01-10T04:09:31.043Z,80.25
2023-01-10T04:11:57.483Z,80.13
2023-01-10T04:14:23.939Z,80.22
2023-01-10T04:16:50.398Z,80.21
2023-01-10T04:19:16.830Z,79.89
2023-01-10T04:21:43.347Z,80.07
2023-01-10T04:24:09.946Z,80.43
2023-01-10T04:26:36.403Z,80.17
2023-01-10T04:29:03.288Z,80.03
2023-01-10T04:31:29.836Z,80.13
2023-01-10T04:33:56.334Z,80.28
2023-01-10T04:36:22.771Z,80.29
2023-01-10T04:38:49.439Z,80.20
2023-01-10T04:41:15.953Z,80.01
2023-01-10T04:43:42.328Z,79.81
2023-01-10T04:46:08.860Z,79.91
2023-01-10T04:48:37.214Z,79.55
2023-01-10T04:51:04.079Z,79.50
2023-01-10T04:53:30.491Z,79.43
2023-01-10T04:56:06.048Z,79.41
2023-01-10T04:58:34.386Z,79.51
2023-01-10T05:01:06.488Z,79.32
2023-01-10T05:03:32.860Z,79.27
2023-01-10T05:05:59.227Z,79.31
2023-01-10T05:08:25.738Z,79.16
2023-01-10T05:10:52.149Z,79.10
2023-01-10T05:13:18.571Z,79.17
2023-01-10T05:15:45.045Z,79.29
2023-01-10T05:18:11.466Z,79.41
2023-01-10T05:20:37.838Z,79.27
2023-01-10T05:23:04.287Z,79.49
2023-01-10T05:25:30.664Z,79.22
2023-01-10T05:27:57.075Z,79.31
2023-01-10T05:30:23.504Z,79.46
2023-01-10T05:32:49.899Z,79.32
2023-01-10T05:35:17.281Z,79.50
2023-01-10T05:37:43.767Z,79.38
2023-01-10T05:40:11.122Z,79.55
2023-01-10T05:42:37.626Z,79.85
2023-01-10T05:45:05.060Z,80.05
2023-01-10T05:47:31.683Z,80.29
2023-01-10T05:49:58.045Z,80.04
2023-01-10T05:52:24.801Z,79.84
2023-01-10T05:54:51.399Z,79.95
2023-01-10T05:57:19.183Z,80.24
2023-01-10T05:59:45.925Z,80.06
2023-01-10T06:02:12.352Z,80.58
2023-01-10T06:04:38.755Z,80.80
2023-01-10T06:07:05.095Z,80.90
2023-01-10T06:09:32.651Z,80.74
2023-01-10T06:11:59.114Z,80.32
2023-01-10T06:14:25.548Z,80.42
2023-01-10T06:16:51.961Z,80.53
2023-01-10T06:19:18.336Z,80.61
2023-01-10T06:21:44.793Z,80.44
2023-01-10T06:24:11.350Z,80.13
2023-01-10T06:26:37.744Z,79.99
2023-01-10T06:29:04.199Z,80.15
2023-01-10T06:31:30.628Z,80.06
2023-01-10T06:33:57.267Z,80.23
2023-01-10T06:36:23.769Z,80.46
2023-01-10T06:38:50.165Z,80.43
2023-01-10T06:41:16.569Z,80.20
2023-01-10T06:43:47.854Z,80.19
2023-01-10T06:46:18.126Z,80.29
2023-01-10T06:48:45.616Z,80.11
2023-01-10T06:51:13.673Z,80.13
2023-01-10T06:53:40.267Z,80.31
2023-01-10T06:56:07.494Z,80.44
2023-01-10T06:58:34.781Z,80.38
2023-01-10T07:01:01.538Z,80.38
2023-01-10T07:03:28.129Z,80.30
2023-01-10T07:05:54.530Z,80.33
2023-01-10T07:08:21.052Z,80.51
2023-01-10T07:10:47.431Z,80.56
2023-01-10T07:13:13.795Z,80.51
2023-01-10T07:15:40.215Z,80.72
2023-01-10T07:18:06.757Z,80.63
2023-01-10T07:20:33.140Z,80.48
2023-01-10T07:23:03.918Z,80.19
2023-01-10T07:25:30.621Z,80.35
2023-01-10T07:27:57.130Z,80.42
2023-01-10T07:32:36.057Z,80.03
2023-01-10T07:35:02.705Z,80.06
2023-01-10T07:37:29.090Z,80.19
2023-01-10T07:39:56.194Z,80.03
2023-01-10T07:42:22.722Z,80.29
2023-01-10T07:44:49.648Z,80.23
2023-01-10T07:47:16.090Z,80.42
2023-01-10T07:49:42.570Z,80.21
2023-01-10T07:52:09.255Z,80.32
2023-01-10T07:54:35.920Z,80.41
2023-01-10T07:57:02.630Z,80.64
2023-01-10T07:59:29.038Z,80.37
2023-01-10T08:01:55.499Z,80.39
2023-01-10T08:04:21.934Z,80.57
2023-01-10T08:06:48.377Z,80.63
2023-01-10T08:09:14.928Z,80.76
2023-01-10T08:11:42.533Z,80.68
2023-01-10T08:14:09.127Z,80.92
2023-01-10T08:16:35.496Z,80.58
2023-01-10T08:19:02.120Z,80.56
2023-01-10T08:21:28.568Z,80.84
2023-01-10T08:23:54.997Z,80.60
2023-01-10T08:26:21.403Z,80.37
2023-01-10T08:28:47.798Z,80.60
2023-01-10T08:31:14.357Z,80.64
2023-01-10T08:33:41.209Z,80.67
2023-01-10T08:36:15.579Z,80.79
2023-01-10T08:38:41.979Z,80.95
2023-01-10T08:41:08.387Z,80.37
2023-01-10T08:43:34.760Z,79.71
2023-01-10T08:46:01.596Z,79.79
2023-01-10T08:48:28.159Z,79.51
2023-01-10T08:50:54.546Z,79.37
2023-01-10T08:53:20.921Z,78.37
2023-01-10T08:55:49.201Z,78.38
2023-01-10T08:58:15.996Z,78.36
2023-01-10T09:00:42.464Z,77.31
2023-01-10T09:03:09.076Z,77.22
2023-01-10T09:05:35.609Z,76.51
2023-01-10T09:08:03.244Z,76.28
2023-01-10T09:10:30.123Z,76.55
2023-01-10T09:12:59.842Z,76.15
2023-01-10T09:15:32.137Z,75.79
2023-01-10T09:18:00.910Z,75.69
2023-01-10T09:20:28.939Z,76.52
2023-01-10T09:22:56.893Z,75.05
2023-01-10T09:25:24.126Z,74.41
2023-01-10T09:27:58.340Z,74.91
2023-01-10T09:30:25.665Z,73.88
2023-01-10T09:32:53.767Z,73.30
2023-01-10T09:35:20.711Z,73.92
2023-01-10T09:37:47.145Z,74.15
2023-01-10T09:40:17.143Z,73.13
2023-01-10T09:42:59.674Z,72.81
2023-01-10T09:45:32.088Z,73.82
2023-01-10T09:48:04.490Z,73.14
2023-01-10T09:50:51.396Z,71.92
2023-01-10T09:53:25.028Z,72.09
2023-01-10T09:55:57.031Z,72.44
2023-01-10T09:58:27.746Z,71.60
2023-01-10T10:00:57.913Z,72.46
2023-01-10T10:03:43.244Z,71.31
2023-01-10T10:06:14.535Z,71.63
2023-01-10T10:08:46.530Z,71.67
2023-01-10T10:11:25.206Z,71.90
2023-01-10T10:14:29.479Z,71.34
2023-01-10T10:16:58.837Z,71.27
2023-01-10T10:19:44.101Z,69.40
2023-01-10T10:22:30.755Z,68.97
2023-01-10T10:25:38.350Z,69.99
2023-01-10T10:28:22.497Z,70.33
2023-01-10T10:31:07.732Z,71.10
2023-01-10T10:33:52.528Z,71.26
2023-01-10T10:36:28.163Z,69.50
2023-01-10T10:38:59.357Z,70.21
2023-01-10T10:41:38.478Z,70.27
2023-01-10T10:44:26.983Z,70.23
2023-01-10T10:46:53.838Z,69.67
2023-01-10T10:49:41.557Z,69.69
2023-01-10T10:52:34.729Z,70.64
2023-01-10T10:55:03.912Z,69.58
2023-01-10T10:57:33.680Z,68.85
2023-01-10T11:00:02.550Z,68.67
2023-01-10T11:02:31.964Z,69.27
2023-01-10T11:05:08.769Z,69.12
2023-01-10T11:07:37.243Z,68.37
2023-01-10T11:10:19.449Z,69.26
2023-01-10T11:12:51.002Z,69.33
2023-01-10T11:15:42.706Z,69.05
2023-01-10T11:18:18.470Z,70.10
2023-01-10T11:20:58.530Z,69.97
2023-01-10T11:23:32.820Z,70.07
2023-01-10T11:25:59.365Z,70.15
2023-01-10T11:28:31.507Z,70.41
2023-01-10T11:30:59.184Z,70.21
2023-01-10T11:33:35.436Z,70.46
2023-01-10T11:36:05.898Z,70.50
2023-01-10T11:38:34.771Z,70.08
2023-01-10T11:41:17.440Z,69.39
2023-01-10T11:43:44.000Z,68.84
2023-01-10T11:46:21.538Z,67.97
2023-01-10T11:49:08.476Z,67.88
2023-01-10T11:51:44.636Z,68.04
2023-01-10T11:54:25.046Z,67.38
2023-01-10T11:56:56.459Z,67.44
2023-01-10T11:59:23.917Z,67.09
2023-01-10T12:02:27.597Z,66.50
2023-01-10T12:04:57.041Z,66.17
2023-01-10T12:07:23.537Z,66.23
2023-01-10T12:10:01.958Z,66.16
2023-01-10T12:12:36.341Z,66.14
2023-01-10T12:15:26.789Z,65.95
2023-01-10T12:17:56.994Z,65.85
2023-01-10T12:20:25.246Z,66.43
2023-01-10T12:22:59.272Z,66.78
2023-01-10T12:25:43.127Z,66.59
2023-01-10T12:28:18.386Z,67.27
2023-01-10T12:30:50.246Z,67.26
2023-01-10T12:33:21.940Z,67.19
2023-01-10T12:36:06.876Z,67.32
2023-01-10T12:38:54.479Z,66.85
2023-01-10T12:41:48.497Z,67.03
2023-01-10T12:44:22.472Z,67.03
2023-01-10T12:47:13.166Z,67.08
2023-01-10T12:49:58.911Z,66.78
2023-01-10T12:52:49.598Z,67.22
2023-01-10T12:55:18.402Z,67.58
2023-01-10T12:57:52.009Z,67.99
2023-01-10T13:00:32.878Z,68.17
2023-01-10T13:03:12.367Z,68.29
2023-01-10T13:05:39.041Z,68.08
2023-01-10T13:08:17.737Z,68.43
2023-01-10T13:10:48.631Z,68.40
2023-01-10T13:13:52.294Z,68.08
2023-01-10T13:16:52.634Z,68.16
2023-01-10T13:19:21.357Z,68.01
2023-01-10T13:21:48.157Z,68.18
2023-01-10T13:24:28.767Z,67.75
2023-01-10T13:26:58.077Z,67.16
2023-01-10T13:29:29.132Z,66.79
2023-01-10T13:31:59.307Z,66.93
2023-01-10T13:34:32.257Z,67.36
2023-01-10T13:37:02.954Z,67.85
2023-01-10T13:39:36.520Z,67.96
2023-01-10T13:42:21.681Z,67.71
2023-01-10T13:45:13.470Z,67.54
2023-01-10T13:47:40.015Z,67.39
2023-01-10T13:50:24.616Z,67.67
2023-01-10T13:52:51.519Z,67.85
2023-01-10T13:55:23.434Z,68.14
2023-01-10T13:57:53.953Z,68.53
2023-01-10T14:01:01.865Z,68.93
2023-01-10T14:03:43.436Z,69.23
2023-01-10T14:06:41.247Z,68.80
2023-01-10T14:09:14.164Z,68.74
2023-01-10T14:11:43.699Z,68.94
2023-01-10T14:14:25.551Z,69.28
2023-01-10T14:16:55.371Z,68.93
2023-01-10T14:19:27.703Z,68.85
2023-01-10T14:21:56.224Z,68.48
2023-01-10T14:24:28.973Z,68.72
2023-01-10T14:27:00.532Z,68.82
2023-01-10T14:29:31.558Z,69.00
2023-01-10T14:32:00.261Z,68.95
2023-01-10T14:34:37.304Z,68.89
2023-01-10T14:37:11.206Z,68.24
2023-01-10T14:39:38.119Z,68.69
2023-01-10T14:42:13.039Z,68.82
2023-01-10T14:44:53.583Z,69.25
2023-01-10T14:47:34.322Z,69.69
2023-01-10T14:50:07.377Z,69.81
2023-01-10T14:52:33.846Z,70.20
2023-01-10T14:55:13.140Z,70.17
2023-01-10T14:57:39.827Z,70.36
2023-01-10T15:00:09.267Z,70.41
2023-01-10T15:02:37.288Z,70.46
2023-01-10T15:05:17.109Z,70.31
2023-01-10T15:07:43.593Z,70.25
2023-01-10T15:10:32.753Z,70.64
2023-01-10T15:13:02.848Z,70.88
2023-01-10T15:15:34.337Z,70.91
2023-01-10T15:18:05.026Z,70.77
2023-01-10T15:20:31.705Z,70.82
2023-01-10T15:23:01.241Z,71.10
2023-01-10T15:25:38.305Z,71.32
2023-01-10T15:28:12.820Z,71.42
2023-01-10T15:30:40.122Z,71.70
2023-01-10T15:33:13.713Z,71.77
2023-01-10T15:35:43.488Z,71.71
2023-01-10T15:38:16.483Z,71.76
2023-01-10T15:40:43.797Z,71.89
2023-01-10T15:43:24.427Z,72.26
2023-01-10T15:45:53.064Z,72.67
2023-01-10T15:48:35.866Z,73.63
2023-01-10T15:51:33.633Z,74.37
2023-01-10T15:54:14.227Z,75.30
2023-01-10T15:56:48.344Z,75.55
2023-01-10T15:59:33.121Z,76.36
2023-01-10T16:02:12.038Z,77.01
2023-01-10T16:04:40.208Z,77.53
2023-01-10T16:07:16.528Z,77.30
2023-01-10T16:09:49.556Z,77.27
2023-01-10T16:12:54.600Z,78.17
2023-01-10T16:15:26.758Z,79.79
2023-01-10T16:17:53.814Z,81.28
2023-01-10T16:20:29.810Z,82.52
2023-01-10T16:22:57.025Z,83.18
2023-01-10T16:25:45.237Z,84.26
2023-01-10T16:28:12.671Z,84.53
2023-01-10T16:30:44.004Z,85.13
2023-01-10T16:33:12.557Z,85.56
2023-01-10T16:35:39.404Z,85.94
2023-01-10T16:38:05.780Z,86.15
2023-01-10T16:40:39.016Z,86.12
2023-01-10T16:43:17.870Z,86.22
2023-01-10T16:45:48.713Z,86.47
2023-01-10T16:48:17.098Z,87.24
2023-01-10T16:50:44.073Z,87.19
2023-01-10T16:53:12.580Z,87.31
2023-01-10T16:55:58.567Z,87.41
2023-01-10T16:58:24.966Z,87.66
2023-01-10T17:00:53.015Z,88.62
2023-01-10T17:03:24.553Z,89.36
2023-01-10T17:05:51.619Z,89.83
2023-01-10T17:08:24.435Z,90.75
2023-01-10T17:10:53.743Z,91.31
2023-01-10T17:13:25.855Z,91.53
2023-01-10T17:15:52.415Z,91.55
2023-01-10T17:18:18.996Z,91.38
2023-01-10T17:20:46.767Z,91.84
2023-01-10T17:23:15.045Z,92.02
2023-01-10T17:25:41.928Z,92.28
2023-01-10T17:28:11.804Z,92.30
2023-01-10T17:30:42.262Z,92.22
2023-01-10T17:33:11.984Z,92.53
2023-01-10T17:35:42.019Z,92.40
2023-01-10T17:38:15.430Z,92.84
2023-01-10T17:40:43.330Z,92.80
2023-01-10T17:43:11.219Z,92.75
2023-01-10T17:45:42.287Z,92.88
2023-01-10T17:48:09.707Z,93.04
2023-01-10T17:50:37.432Z,93.31
2023-01-10T17:53:04.587Z,93.57
2023-01-10T17:55:31.344Z,93.80
2023-01-10T17:57:58.429Z,93.91
2023-01-10T18:00:25.177Z,94.06
2023-01-10T18:02:51.600Z,94.19
2023-01-10T18:05:18.137Z,94.27
2023-01-10T18:07:44.546Z,94.39
2023-01-10T18:10:11.129Z,94.39
2023-01-10T18:12:37.912Z,94.57
2023-01-10T18:15:05.460Z,94.75
2023-01-10T18:17:31.824Z,94.81
2023-01-10T18:19:58.267Z,94.78
2023-01-10T18:22:43.147Z,94.78
2023-01-10T18:25:09.669Z,94.69
2023-01-10T18:27:36.289Z,94.72
2023-01-10T18:30:04.027Z,94.73
2023-01-10T18:32:32.423Z,94.80
2023-01-10T18:34:59.840Z,94.92
2023-01-10T18:37:26.479Z,95.09
2023-01-10T18:39:52.932Z,95.22
2023-01-10T18:42:19.400Z,95.24
2023-01-10T18:44:47.561Z,95.27
2023-01-10T18:47:14.054Z,95.25
2023-01-10T18:49:40.881Z,95.34
2023-01-10T18:52:07.323Z,95.41
2023-01-10T18:57:36.146Z,95.37
2023-01-10T19:00:04.655Z,95.21
2023-01-10T19:02:31.088Z,95.12
2023-01-10T19:04:57.658Z,95.03
2023-01-10T19:07:24.797Z,94.91
2023-01-10T19:09:51.194Z,94.78
2023-01-10T19:12:17.695Z,94.75
2023-01-10T19:14:45.270Z,94.69
2023-01-10T19:17:11.667Z,94.67
2023-01-10T19:19:38.139Z,94.63
2023-01-10T19:22:04.688Z,94.46
2023-01-10T19:24:35.541Z,94.36
2023-01-10T19:27:02.048Z,94.28
2023-01-10T19:29:30.512Z,94.03
2023-01-10T19:31:58.069Z,93.83
2023-01-10T19:34:25.076Z,93.44
2023-01-10T19:36:51.871Z,93.20
2023-01-10T19:39:18.405Z,92.82
2023-01-10T19:41:44.760Z,92.46
2023-01-10T19:44:13.266Z,92.38
2023-01-10T19:46:40.741Z,92.33
2023-01-10T19:49:08.406Z,92.25
2023-01-10T19:51:40.067Z,92.01
2023-01-10T19:54:08.270Z,91.75
2023-01-10T19:56:35.737Z,91.69
2023-01-10T19:59:02.232Z,91.57
2023-01-10T20:01:31.336Z,91.72
2023-01-10T20:04:01.695Z,91.61
2023-01-10T20:06:30.816Z,91.25
2023-01-10T20:08:57.515Z,90.96
2023-01-10T20:11:26.357Z,90.80
2023-01-10T20:13:53.333Z,90.75
2023-01-10T20:16:23.024Z,91.11
2023-01-10T20:18:50.984Z,91.31
2023-01-10T20:21:18.633Z,91.68
2023-01-10T20:23:45.847Z,91.92
2023-01-10T20:26:14.746Z,92.02
2023-01-10T20:28:42.774Z,92.03
2023-01-10T20:31:12.519Z,91.57
2023-01-10T20:33:39.017Z,91.04
2023-01-10T20:36:11.814Z,90.53
2023-01-10T20:38:39.064Z,89.89
2023-01-10T20:41:14.357Z,89.30
2023-01-10T20:43:41.065Z,89.18
2023-01-10T20:46:13.255Z,88.64
2023-01-10T20:48:41.553Z,88.31
2023-01-10T20:51:11.496Z,88.43
2023-01-10T20:53:38.051Z,88.47
2023-01-10T20:56:06.860Z,87.82
2023-01-10T20:58:35.028Z,87.31
2023-01-10T21:01:01.983Z,87.06
2023-01-10T21:03:28.870Z,87.01
2023-01-10T21:05:55.633Z,86.94
2023-01-10T21:08:23.622Z,86.78
2023-01-10T21:10:51.143Z,86.56
2023-01-10T21:13:17.797Z,86.43
2023-01-10T21:15:46.195Z,86.79
2023-01-10T21:18:14.527Z,86.92
2023-01-10T21:20:46.374Z,86.87
2023-01-10T21:23:14.443Z,87.09
2023-01-10T21:25:41.137Z,87.59
2023-01-10T21:28:12.204Z,87.38
2023-01-10T21:30:40.127Z,87.48
2023-01-10T21:33:07.597Z,87.54
2023-01-10T21:35:34.504Z,87.27
2023-01-10T21:38:02.376Z,87.15
2023-01-10T21:40:29.309Z,87.08
2023-01-10T21:42:55.680Z,86.60
2023-01-10T21:45:22.275Z,85.74
2023-01-10T21:47:49.188Z,85.85
2023-01-10T21:50:16.418Z,85.84
2023-01-10T21:52:43.312Z,85.96
2023-01-10T21:55:10.943Z,85.60
2023-01-10T21:57:39.464Z,84.96
2023-01-10T22:00:07.057Z,85.34
2023-01-10T22:02:34.703Z,85.37
2023-01-10T22:05:01.338Z,85.24
2023-01-10T22:07:28.690Z,85.00
2023-01-10T22:09:56.526Z,85.10
2023-01-10T22:12:24.402Z,85.07
2023-01-10T22:14:50.906Z,85.26
2023-01-10T22:17:17.446Z,85.15
2023-01-10T22:19:43.862Z,85.22
2023-01-10T22:22:10.930Z,85.04
2023-01-10T22:24:37.330Z,85.14
2023-01-10T22:27:04.898Z,84.79
2023-01-10T22:29:31.273Z,84.83
2023-01-10T22:31:57.890Z,84.80
2023-01-10T22:34:24.424Z,84.61
2023-01-10T22:36:50.912Z,84.66
2023-01-10T22:39:17.450Z,84.50
2023-01-10T22:41:43.796Z,84.26
2023-01-10T22:44:18.552Z,84.42
2023-01-10T22:46:45.931Z,84.19
2023-01-10T22:49:13.008Z,84.11
2023-01-10T22:51:39.416Z,83.85
2023-01-10T22:54:06.016Z,83.79
2023-01-10T22:56:33.233Z,83.73
2023-01-10T22:58:59.684Z,83.72
2023-01-10T23:01:26.216Z,83.52
2023-01-10T23:03:52.766Z,83.61
2023-01-10T23:06:19.627Z,83.43
2023-01-10T23:08:46.548Z,83.53
2023-01-10T23:11:16.351Z,83.61
2023-01-10T23:13:43.052Z,84.05
2023-01-10T23:16:13.521Z,84.49
2023-01-10T23:18:40.633Z,84.79
2023-01-10T23:21:07.962Z,85.21
2023-01-10T23:23:35.319Z,85.34
2023-01-10T23:26:03.455Z,85.65
2023-01-10T23:28:42.812Z,85.92
2023-01-10T23:31:09.290Z,85.98
2023-01-10T23:33:36.354Z,85.89
2023-01-10T23:36:03.670Z,86.25
2023-01-10T23:38:30.613Z,86.16
2023-01-10T23:40:57.053Z,86.14
2023-01-10T23:43:23.902Z,85.71
2023-01-10T23:45:50.721Z,85.65
2023-01-10T23:48:17.569Z,85.71
2023-01-10T23:50:47.189Z,85.74
2023-01-10T23:53:13.523Z,85.65
2023-01-10T23:55:41.463Z,85.72
2023-01-10T23:58:08.003Z,85.52
